首页
METAR-TAF:

METAR-TAF

机场 :

南宁吴圩国际机场

南宁, 中华人民共和国

纬度: 22-49N, 经度: 108-21E, 海拔: 73米

当前天气观测

该预报发布于51分钟前的04:00 UTC
风速6节,风向东转东北,在北转东北之间变化
温度 19°C
湿度 94%
气压 1018 hPa
能見度: 4000
少量云层高于200英尺
散云层高于600英尺
阴天层高于2000英尺
小雨, 轻雾

METAR: ZGNN 180400Z 06003MPS 020V100 4000 -RA BR FEW002 SCT006 OVC020 19/18 Q1018 NOSIG

时间: 12:51 (04:51 UTC)

预报

该预报发布于9小时和43分钟前的19:08 UTC
预报有效从18日的 00点(UTC)到 18日的 24点(UTC)
风速6节,风向东北
能見度: 3500
少量云层高于300英尺
散云层高于800英尺
多云层高于2600英尺
轻雾
成为
从 18日的 04点(UTC)到 18日的 05点(UTC)
多云层高于1300英尺
多云层高于2600英尺

TAF: ZGNN 171908Z 1800/1824 05003MPS 3500 BR FEW003 SCT008 BKN026 TX19/1807Z TN15/1822Z BECMG 1804/1805 BKN013 BKN026

超过4000个机场的气象观测和天气预报(METAR&TAF报告)。

可查询的气象台以黄色和红色小点在地图上表示。

将鼠标移到小点上方,可查看气象台名称。

然后点击查看天气观测和预报。

如需切换地图:点击带黑十字的绿色按钮放大地图;点击带横线的绿色按钮缩小地图;或者点击绿色箭头查看邻近地区的地图。


METAR-TAF: